This is the latest recevied weather packets stored in our database for station/object K7LDN-13. If no packets are shown the sender has not sent any weather packets the latest 10 day(s).
| Time | Temp. | Humidity | Pressure | Rain* | Wind** | Luminosity | Snow |
|---|---|---|---|---|---|---|---|
| 1777513807 | 13.89° C | 35% | 1021.3 hPa | 0 mm | - | 30 W/m² | - |
| 1777513504 | 13.89° C | 35% | 1021.1 hPa | 0 mm | - | 37 W/m² | - |
| 1777512896 | 13.89° C | 35% | 1021.2 hPa | 0 mm | - | 44 W/m² | - |
| 1777512290 | 13.89° C | 35% | 1021.2 hPa | 0 mm | - | 63 W/m² | - |
| 1777511986 | 13.89° C | 35% | 1021.2 hPa | 0 mm | - | 54 W/m² | - |
| 1777511685 | 13.89° C | 34% | 1021.4 hPa | 0 mm | - | 62 W/m² | - |
| 1777511382 | 13.89° C | 34% | 1021.3 hPa | 0 mm | - | 56 W/m² | - |
| 1777511077 | 14.44° C | 33% | 1021.2 hPa | 0 mm | - | 70 W/m² | - |
| 1777510768 | 14.44° C | 32% | 1021.3 hPa | 0 mm | - | 84 W/m² | - |
| 1777510466 | 15° C | 33% | 1021.2 hPa | 0 mm | - | 121 W/m² | - |
| 1777510161 | 15° C | 33% | 1021.3 hPa | 0 mm | - | 148 W/m² | - |
| 1777509553 | 15° C | 35% | 1021.6 hPa | 0 mm | - | 165 W/m² | - |
| 1777508947 | 15° C | 30% | 1021.1 hPa | 0 mm | - | 201 W/m² | - |
| 1777508342 | 14.44° C | 29% | 1021.4 hPa | 0 mm | - | 104 W/m² | - |
| 1777508038 | 15° C | 29% | 1021.4 hPa | 0 mm | - | 109 W/m² | - |
| 1777507129 | 15° C | 28% | 1021.4 hPa | 0 mm | - | 180 W/m² | - |
| 1777505006 | 16.11° C | 25% | 1021.4 hPa | 0 mm | - | 187 W/m² | - |
| 1777502578 | 15.56° C | 22% | 1021.3 hPa | 0 mm | - | 301 W/m² | - |
| 1777502275 | 15.56° C | 23% | 1021.3 hPa | 0 mm | - | 323 W/m² | - |
| 1777501972 | 15.56° C | 23% | 1021.3 hPa | 0 mm | - | 314 W/m² | - |
| 1777501669 | 15.56° C | 23% | 1021.3 hPa | 0 mm | - | 302 W/m² | - |
| 1777501365 | 16.11° C | 23% | 1021.3 hPa | 0 mm | - | 413 W/m² | - |
| 1777501063 | 16.11° C | 25% | 1021.4 hPa | 0 mm | - | 481 W/m² | - |
| 1777500761 | 16.11° C | 23% | 1021.3 hPa | 0 mm | - | 495 W/m² | - |
| 1777500458 | 16.11° C | 23% | 1021.4 hPa | 0 mm | - | 481 W/m² | - |
* Rain latest hour (hover to see other rain measurements)
** Current wind speed in m/s (hover to see current wind gust speed)